createdAt,value
2019-05-29T00:00:48.096Z,33.95
2019-05-29T00:03:20.422Z,37.13
2019-05-29T00:05:53.156Z,36.77
2019-05-29T00:08:25.471Z,33.42
2019-05-29T00:10:58.162Z,37.88
2019-05-29T00:13:30.512Z,33.90
2019-05-29T00:16:03.314Z,46.60
2019-05-29T00:18:35.530Z,36.58
2019-05-29T00:21:08.392Z,34.98
2019-05-29T00:23:40.963Z,36.58
2019-05-29T00:26:14.563Z,38.48
2019-05-29T00:28:46.847Z,32.25
2019-05-29T00:31:19.656Z,36.53
2019-05-29T00:33:51.813Z,32.23
2019-05-29T00:36:24.348Z,41.50
2019-05-29T00:38:56.446Z,36.85
2019-05-29T00:41:29.106Z,32.40
2019-05-29T00:44:01.491Z,31.73
2019-05-29T00:46:33.747Z,31.70
2019-05-29T00:49:07.659Z,30.65
2019-05-29T00:51:40.340Z,28.87
2019-05-29T00:54:12.690Z,28.23
2019-05-29T00:56:44.894Z,26.62
2019-05-29T00:59:17.408Z,30.00
2019-05-29T01:01:49.907Z,26.30
2019-05-29T01:04:22.420Z,22.82
2019-05-29T01:06:54.622Z,27.05
2019-05-29T01:09:27.376Z,21.05
2019-05-29T01:11:59.627Z,26.20
2019-05-29T01:14:31.991Z,22.00
2019-05-29T01:17:04.312Z,21.93
2019-05-29T01:19:36.974Z,21.77
2019-05-29T01:22:09.689Z,25.77
2019-05-29T01:24:42.078Z,19.25
2019-05-29T01:27:15.074Z,21.97
2019-05-29T01:29:47.528Z,18.17
2019-05-29T01:32:21.620Z,22.58
2019-05-29T01:34:54.256Z,21.80
2019-05-29T01:37:26.825Z,20.60
2019-05-29T01:39:59.202Z,20.88
2019-05-29T01:42:31.626Z,18.73
2019-05-29T01:45:08.219Z,17.85
2019-05-29T01:47:37.938Z,16.45
2019-05-29T01:50:10.438Z,16.60
2019-05-29T01:52:43.326Z,15.95
2019-05-29T01:55:15.856Z,19.20
2019-05-29T01:57:48.508Z,17.30
2019-05-29T02:00:21.962Z,16.10
2019-05-29T02:02:54.759Z,19.12
2019-05-29T02:05:28.171Z,16.65
2019-05-29T02:08:00.582Z,19.20
2019-05-29T02:10:32.872Z,14.98
2019-05-29T02:13:06.681Z,22.00
2019-05-29T02:15:38.982Z,14.33
2019-05-29T02:18:11.389Z,18.45
2019-05-29T02:20:44.064Z,18.37
2019-05-29T02:23:16.317Z,16.48
2019-05-29T02:25:48.521Z,17.70
2019-05-29T02:28:22.526Z,16.20
2019-05-29T02:30:55.379Z,16.77
2019-05-29T02:33:28.847Z,15.65
2019-05-29T02:36:01.055Z,15.85
2019-05-29T02:38:33.475Z,12.98
2019-05-29T02:41:06.239Z,15.28
2019-05-29T02:43:38.648Z,17.30
2019-05-29T02:46:10.854Z,16.82
2019-05-29T02:48:43.462Z,15.23
2019-05-29T02:51:15.595Z,16.75
2019-05-29T02:53:48.467Z,15.75
2019-05-29T02:56:20.931Z,17.80
2019-05-29T02:58:54.555Z,15.72
2019-05-29T03:01:27.796Z,16.65
2019-05-29T03:04:00.581Z,14.68
2019-05-29T03:06:32.887Z,13.32
2019-05-29T03:09:07.688Z,15.15
2019-05-29T03:11:39.900Z,16.15
2019-05-29T03:14:12.313Z,15.90
2019-05-29T03:16:45.725Z,13.93
2019-05-29T03:19:18.423Z,17.25
2019-05-29T03:21:51.514Z,12.35
2019-05-29T03:24:24.484Z,14.78
2019-05-29T03:26:56.778Z,13.50
2019-05-29T03:29:30.016Z,13.20
2019-05-29T03:32:02.419Z,14.25
2019-05-29T03:34:42.059Z,13.15
2019-05-29T03:37:08.385Z,13.65
2019-05-29T03:39:41.425Z,14.23
2019-05-29T03:42:13.626Z,12.78
2019-05-29T03:44:45.916Z,12.47
2019-05-29T03:47:18.329Z,13.08
2019-05-29T03:49:50.757Z,12.07
2019-05-29T03:52:23.226Z,12.53
2019-05-29T03:54:55.467Z,14.58
2019-05-29T03:57:29.694Z,13.13
2019-05-29T04:00:01.805Z,13.10
2019-05-29T04:02:36.145Z,11.18
2019-05-29T04:05:10.805Z,12.37
2019-05-29T04:07:43.312Z,12.07
2019-05-29T04:10:15.956Z,15.98
2019-05-29T04:12:48.504Z,12.15
2019-05-29T04:15:20.876Z,12.28
2019-05-29T04:17:54.091Z,13.08
2019-05-29T04:20:27.536Z,11.18
2019-05-29T04:23:01.412Z,12.65
2019-05-29T04:25:39.606Z,10.72
2019-05-29T04:28:10.978Z,13.28
2019-05-29T04:30:43.500Z,11.53
2019-05-29T04:33:15.965Z,10.85
2019-05-29T04:35:48.093Z,11.48
2019-05-29T04:38:20.713Z,11.03
2019-05-29T04:40:53.051Z,12.25
2019-05-29T04:43:25.721Z,9.23
2019-05-29T04:45:58.045Z,8.23
2019-05-29T04:48:31.476Z,9.40
2019-05-29T04:51:04.087Z,9.30
2019-05-29T04:53:37.742Z,9.35
2019-05-29T04:56:10.607Z,8.58
2019-05-29T04:58:42.793Z,8.53
2019-05-29T05:01:15.085Z,10.32
2019-05-29T05:03:47.374Z,8.18
2019-05-29T05:06:20.188Z,8.73
2019-05-29T05:08:52.378Z,9.05
2019-05-29T05:11:25.047Z,10.10
2019-05-29T05:13:57.200Z,13.50
2019-05-29T05:16:29.830Z,8.48
2019-05-29T05:19:02.802Z,7.60
2019-05-29T05:21:36.006Z,8.60
2019-05-29T05:24:08.343Z,11.25
2019-05-29T05:26:40.929Z,9.03
2019-05-29T05:29:13.200Z,9.55
2019-05-29T05:31:46.303Z,7.37
2019-05-29T05:34:18.525Z,10.38
2019-05-29T05:36:51.024Z,9.05
2019-05-29T05:39:23.422Z,7.85
2019-05-29T05:41:56.449Z,10.38
2019-05-29T05:44:28.895Z,8.70
2019-05-29T05:47:01.194Z,9.63
2019-05-29T05:49:33.471Z,9.18
2019-05-29T05:52:06.367Z,7.90
2019-05-29T05:54:39.501Z,7.33
2019-05-29T05:57:11.978Z,8.73
2019-05-29T05:59:44.150Z,7.67
2019-05-29T06:02:16.798Z,9.18
2019-05-29T06:04:48.899Z,9.23
2019-05-29T06:07:21.453Z,9.05
2019-05-29T06:09:53.564Z,9.03
2019-05-29T06:12:25.973Z,8.33
2019-05-29T06:14:58.150Z,8.80
2019-05-29T06:17:30.536Z,8.18
2019-05-29T06:20:02.759Z,10.20
2019-05-29T06:22:35.284Z,7.50
2019-05-29T06:25:08.921Z,10.20
2019-05-29T06:27:41.549Z,9.00
2019-05-29T06:30:14.559Z,10.90
2019-05-29T06:32:47.589Z,8.53
2019-05-29T06:35:20.697Z,10.93
2019-05-29T06:37:53.453Z,7.95
2019-05-29T06:40:29.010Z,8.45
2019-05-29T06:43:01.453Z,9.55
2019-05-29T06:45:36.451Z,11.83
2019-05-29T06:48:11.068Z,9.65
2019-05-29T06:50:43.468Z,10.15
2019-05-29T06:53:15.941Z,10.38
2019-05-29T06:55:52.972Z,8.70
2019-05-29T06:58:21.863Z,8.93
2019-05-29T07:00:54.263Z,9.73
2019-05-29T07:03:27.002Z,9.58
2019-05-29T07:05:59.231Z,8.33
2019-05-29T07:08:39.083Z,7.72
2019-05-29T07:11:05.387Z,7.65
2019-05-29T07:13:40.994Z,7.00
2019-05-29T07:16:11.910Z,8.53
2019-05-29T07:19:20.531Z,8.05
2019-05-29T07:21:17.808Z,6.95
2019-05-29T07:23:50.505Z,7.40
2019-05-29T07:26:23.183Z,7.00
2019-05-29T07:29:06.880Z,8.85
2019-05-29T07:31:29.397Z,6.87
2019-05-29T07:34:02.080Z,7.05
2019-05-29T07:36:34.384Z,10.88
2019-05-29T07:39:09.247Z,7.87
2019-05-29T07:41:41.683Z,8.75
2019-05-29T07:44:14.327Z,9.43
2019-05-29T07:46:47.123Z,8.38
2019-05-29T07:49:29.629Z,8.08
2019-05-29T07:51:54.123Z,6.17
2019-05-29T07:54:26.709Z,10.43
2019-05-29T07:56:59.258Z,7.55
2019-05-29T07:59:33.159Z,6.25
2019-05-29T08:02:05.708Z,10.63
2019-05-29T08:04:38.880Z,14.73
2019-05-29T08:07:11.295Z,5.47
2019-05-29T08:09:43.969Z,10.10
2019-05-29T08:12:16.290Z,8.85
2019-05-29T08:14:49.851Z,9.18
2019-05-29T08:17:24.729Z,6.95
2019-05-29T08:20:06.190Z,7.70
2019-05-29T08:22:34.312Z,6.53
2019-05-29T08:25:03.777Z,7.85
2019-05-29T08:27:36.574Z,11.83
2019-05-29T08:30:10.219Z,8.38
2019-05-29T08:32:43.576Z,7.20
2019-05-29T08:35:16.731Z,7.75
2019-05-29T08:37:49.167Z,8.23
2019-05-29T08:40:22.010Z,16.42
2019-05-29T08:42:55.049Z,8.25
2019-05-29T08:45:27.653Z,12.03
2019-05-29T08:47:59.816Z,7.53
2019-05-29T08:50:32.101Z,6.50
2019-05-29T08:53:04.261Z,6.62
2019-05-29T08:55:36.782Z,10.38
2019-05-29T08:58:08.947Z,6.45
2019-05-29T09:00:46.470Z,6.50
2019-05-29T09:03:15.265Z,7.42
2019-05-29T09:06:04.309Z,6.95
2019-05-29T09:08:21.561Z,7.42
2019-05-29T09:10:54.222Z,5.67
2019-05-29T09:13:26.811Z,7.37
2019-05-29T09:15:59.166Z,10.63
2019-05-29T09:18:31.596Z,7.42
2019-05-29T09:21:07.823Z,7.58
2019-05-29T09:23:40.037Z,6.70
2019-05-29T09:26:19.051Z,6.95
2019-05-29T09:28:46.859Z,5.08
2019-05-29T09:31:22.143Z,7.30
2019-05-29T09:33:58.875Z,7.47
2019-05-29T09:36:32.619Z,7.58
2019-05-29T09:39:08.254Z,7.47
2019-05-29T09:41:43.504Z,6.58
2019-05-29T09:44:37.295Z,6.90
2019-05-29T09:46:56.001Z,6.87
2019-05-29T09:49:31.525Z,5.95
2019-05-29T09:52:05.819Z,5.85
2019-05-29T09:54:39.979Z,4.67
2019-05-29T09:57:16.766Z,5.33
2019-05-29T09:59:49.853Z,6.37
2019-05-29T10:02:22.579Z,4.83
2019-05-29T10:04:56.090Z,6.42
2019-05-29T10:07:28.530Z,5.65
2019-05-29T10:10:02.923Z,5.90
2019-05-29T10:12:34.302Z,5.70
2019-05-29T10:15:09.098Z,6.25
2019-05-29T10:17:41.493Z,8.83
2019-05-29T10:20:14.850Z,8.33
2019-05-29T10:22:47.407Z,7.90
2019-05-29T10:25:21.367Z,7.20
2019-05-29T10:27:53.596Z,7.50
2019-05-29T10:30:26.262Z,6.62
2019-05-29T10:32:59.314Z,10.20
2019-05-29T10:35:31.553Z,7.05
2019-05-29T10:38:04.651Z,7.58
2019-05-29T10:40:37.369Z,7.67
2019-05-29T10:43:09.671Z,8.75
2019-05-29T10:45:43.400Z,6.80
2019-05-29T10:48:15.678Z,7.65
2019-05-29T10:50:50.980Z,9.40
2019-05-29T10:53:22.013Z,8.20
2019-05-29T10:55:54.893Z,8.90
2019-05-29T10:58:27.526Z,9.68
2019-05-29T11:00:59.966Z,14.75
2019-05-29T11:03:32.586Z,11.95
2019-05-29T11:06:04.897Z,12.03
2019-05-29T11:08:37.440Z,13.38
2019-05-29T11:11:09.741Z,11.00
2019-05-29T11:13:41.985Z,9.35
2019-05-29T11:16:14.489Z,7.03
2019-05-29T11:18:47.515Z,9.50
2019-05-29T11:21:19.873Z,7.72
2019-05-29T11:23:52.063Z,5.78
2019-05-29T11:26:24.446Z,8.18
2019-05-29T11:28:56.777Z,6.45
2019-05-29T11:31:29.243Z,8.63
2019-05-29T11:34:01.395Z,6.30
2019-05-29T11:36:33.739Z,8.63
2019-05-29T19:34:07.599Z,16.27
2019-05-29T19:36:40.218Z,12.33
2019-05-29T19:39:13.095Z,13.78
2019-05-29T19:41:45.409Z,13.48
2019-05-29T19:44:17.740Z,9.88
2019-05-29T19:46:54.068Z,12.05
2019-05-29T19:49:25.413Z,12.70
2019-05-29T19:51:57.694Z,12.03
2019-05-29T19:54:29.886Z,15.23
2019-05-29T19:57:02.662Z,11.63
2019-05-29T19:59:36.167Z,15.20
2019-05-29T20:02:09.729Z,10.25
2019-05-29T20:04:42.110Z,21.52
2019-05-29T20:07:14.561Z,12.13
2019-05-29T20:09:46.983Z,16.80
2019-05-29T20:12:19.535Z,14.28
2019-05-29T20:14:51.963Z,16.23
2019-05-29T20:17:24.374Z,15.00
2019-05-29T20:19:56.903Z,18.27
2019-05-29T20:22:30.247Z,21.68
2019-05-29T20:25:02.723Z,17.90
2019-05-29T20:27:36.207Z,17.98
2019-05-29T20:30:11.062Z,17.60
2019-05-29T20:32:43.630Z,21.30
2019-05-29T20:35:17.061Z,20.37
2019-05-29T20:37:50.753Z,24.82
2019-05-29T20:40:23.383Z,20.60
2019-05-29T20:42:55.935Z,25.00
2019-05-29T20:45:28.398Z,16.00
2019-05-29T20:48:01.242Z,20.97
2019-05-29T20:50:34.699Z,23.90
2019-05-29T20:53:07.420Z,14.80
2019-05-29T20:55:39.912Z,20.77
2019-05-29T20:58:24.105Z,20.95
2019-05-29T21:00:46.003Z,17.92
2019-05-29T21:03:18.415Z,27.37
2019-05-29T21:05:51.071Z,14.55
2019-05-29T21:08:23.898Z,26.73
2019-05-29T21:10:56.500Z,16.25
2019-05-29T21:13:28.698Z,19.65
2019-05-29T21:16:01.001Z,18.15
2019-05-29T21:18:33.810Z,16.82
2019-05-29T21:21:06.419Z,19.30
2019-05-29T21:23:38.581Z,15.45
2019-05-29T21:26:14.325Z,18.57
2019-05-29T21:28:51.595Z,16.55
2019-05-29T21:31:25.329Z,17.45
2019-05-29T21:33:57.742Z,18.27
2019-05-29T21:36:30.081Z,20.48
2019-05-29T21:39:02.725Z,14.93
2019-05-29T21:41:36.286Z,19.87
2019-05-29T21:44:08.766Z,15.85
2019-05-29T21:46:41.327Z,17.25
2019-05-29T21:49:13.683Z,15.15
2019-05-29T21:51:45.975Z,16.85
2019-05-29T21:54:18.599Z,15.88
2019-05-29T21:56:50.758Z,16.75
2019-05-29T21:59:23.091Z,13.80
2019-05-29T22:01:55.399Z,18.35
2019-05-29T22:04:28.056Z,14.73
2019-05-29T22:07:00.150Z,17.45
2019-05-29T22:09:32.568Z,16.75
2019-05-29T22:12:05.155Z,18.90
2019-05-29T22:14:37.706Z,17.85
2019-05-29T22:17:10.247Z,15.43
2019-05-29T22:19:42.853Z,13.58
2019-05-29T22:22:15.567Z,16.37
2019-05-29T22:24:47.935Z,16.37
2019-05-29T22:27:20.367Z,20.35
2019-05-29T22:29:53.582Z,17.02
2019-05-29T22:32:26.089Z,16.17
2019-05-29T22:34:59.492Z,17.98
2019-05-29T22:37:32.110Z,16.55
2019-05-29T22:40:05.438Z,17.80
2019-05-29T22:42:37.819Z,18.15
2019-05-29T22:45:11.546Z,17.77
2019-05-29T22:47:43.743Z,17.27
2019-05-29T22:50:16.965Z,19.98
2019-05-29T22:52:49.057Z,15.60
2019-05-29T22:55:21.682Z,18.75
2019-05-29T22:57:53.968Z,19.45
2019-05-29T23:00:26.959Z,17.85
2019-05-29T23:03:00.188Z,21.95
2019-05-29T23:05:33.024Z,17.57
2019-05-29T23:08:05.457Z,19.05
2019-05-29T23:10:37.694Z,18.82
2019-05-29T23:13:10.016Z,18.37
2019-05-29T23:15:43.741Z,17.62
2019-05-29T23:18:16.731Z,16.65
2019-05-29T23:20:49.076Z,16.73
2019-05-29T23:23:21.475Z,20.52
2019-05-29T23:25:54.858Z,24.12
2019-05-29T23:28:27.146Z,19.17
2019-05-29T23:31:00.913Z,22.45
2019-05-29T23:33:33.415Z,20.05
2019-05-29T23:36:05.922Z,20.37
2019-05-29T23:38:38.132Z,20.55
2019-05-29T23:41:10.384Z,19.10
2019-05-29T23:43:42.694Z,20.50
2019-05-29T23:46:15.211Z,21.60
2019-05-29T23:48:47.357Z,21.20
2019-05-29T23:51:19.832Z,22.20
2019-05-29T23:53:53.519Z,22.62
2019-05-29T23:56:25.885Z,24.02
2019-05-29T23:58:59.817Z,24.12
